sensor_id;sensor_type;location;lat;lon;timestamp;pressure;altitude;pressure_sealevel;temperature;humidity
71004;BME280;59025;42.050;-8.660;2022-08-06T00:00:57;100639.97;;;22.05;100.00
71004;BME280;59025;42.050;-8.660;2022-08-06T00:03:24;100641.06;;;21.99;100.00
71004;BME280;59025;42.050;-8.660;2022-08-06T00:05:52;100638.19;;;21.96;100.00
71004;BME280;59025;42.050;-8.660;2022-08-06T00:08:20;100634.53;;;21.97;100.00
71004;BME280;59025;42.050;-8.660;2022-08-06T00:10:49;100634.28;;;21.93;100.00
71004;BME280;59025;42.050;-8.660;2022-08-06T00:13:16;100634.56;;;21.92;100.00
71004;BME280;59025;42.050;-8.660;2022-08-06T00:15:44;100629.09;;;21.88;100.00
71004;BME280;59025;42.050;-8.660;2022-08-06T00:18:12;100637.47;;;21.85;100.00
71004;BME280;59025;42.050;-8.660;2022-08-06T00:20:39;100633.56;;;21.83;100.00
71004;BME280;59025;42.050;-8.660;2022-08-06T00:23:07;100637.25;;;21.77;100.00
71004;BME280;59025;42.050;-8.660;2022-08-06T00:25:34;100643.03;;;21.74;100.00
71004;BME280;59025;42.050;-8.660;2022-08-06T00:28:03;100644.88;;;21.73;100.00
71004;BME280;59025;42.050;-8.660;2022-08-06T00:30:31;100640.16;;;21.70;100.00
71004;BME280;59025;42.050;-8.660;2022-08-06T00:32:58;100640.44;;;21.69;100.00
71004;BME280;59025;42.050;-8.660;2022-08-06T00:35:26;100636.78;;;21.65;100.00
71004;BME280;59025;42.050;-8.660;2022-08-06T00:37:53;100632.06;;;21.62;100.00
71004;BME280;59025;42.050;-8.660;2022-08-06T00:40:21;100635.50;;;21.57;100.00
71004;BME280;59025;42.050;-8.660;2022-08-06T00:42:49;100633.94;;;21.56;100.00
71004;BME280;59025;42.050;-8.660;2022-08-06T00:45:19;100631.34;;;21.51;100.00
71004;BME280;59025;42.050;-8.660;2022-08-06T00:47:46;100627.91;;;21.51;100.00
71004;BME280;59025;42.050;-8.660;2022-08-06T00:50:14;100629.22;;;21.48;100.00
71004;BME280;59025;42.050;-8.660;2022-08-06T00:52:41;100635.53;;;21.47;100.00
71004;BME280;59025;42.050;-8.660;2022-08-06T00:55:09;100627.16;;;21.45;100.00
71004;BME280;59025;42.050;-8.660;2022-08-06T00:57:37;100624.81;;;21.44;100.00
71004;BME280;59025;42.050;-8.660;2022-08-06T01:00:06;100635.28;;;21.44;100.00
71004;BME280;59025;42.050;-8.660;2022-08-06T01:02:35;100628.75;;;21.41;100.00
71004;BME280;59025;42.050;-8.660;2022-08-06T01:05:03;100624.06;;;21.38;100.00
71004;BME280;59025;42.050;-8.660;2022-08-06T01:07:31;100626.94;;;21.37;100.00
71004;BME280;59025;42.050;-8.660;2022-08-06T01:09:58;100625.13;;;21.32;100.00
71004;BME280;59025;42.050;-8.660;2022-08-06T01:12:26;100629.31;;;21.33;100.00
71004;BME280;59025;42.050;-8.660;2022-08-06T01:14:54;100633.75;;;21.33;100.00
71004;BME280;59025;42.050;-8.660;2022-08-06T01:17:25;100629.56;;;21.32;100.00
71004;BME280;59025;42.050;-8.660;2022-08-06T01:20:02;100633.50;;;21.29;100.00
71004;BME280;59025;42.050;-8.660;2022-08-06T01:23:02;100617.31;;;21.22;100.00
71004;BME280;59025;42.050;-8.660;2022-08-06T01:25:59;100641.69;;;21.18;100.00
71004;BME280;59025;42.050;-8.660;2022-08-06T01:28:33;100625.19;;;21.12;100.00
71004;BME280;59025;42.050;-8.660;2022-08-06T01:31:04;100634.09;;;21.11;100.00
71004;BME280;59025;42.050;-8.660;2022-08-06T01:33:36;100636.47;;;21.08;100.00
71004;BME280;59025;42.050;-8.660;2022-08-06T01:36:09;100640.38;;;21.05;100.00
71004;BME280;59025;42.050;-8.660;2022-08-06T01:38:42;100640.66;;;21.04;100.00
71004;BME280;59025;42.050;-8.660;2022-08-06T01:41:15;100611.63;;;21.00;100.00
71004;BME280;59025;42.050;-8.660;2022-08-06T01:44:06;100643.81;;;20.96;100.00
71004;BME280;59025;42.050;-8.660;2022-08-06T01:46:36;100639.34;;;20.96;100.00
71004;BME280;59025;42.050;-8.660;2022-08-06T01:49:05;100663.94;;;20.95;100.00
71004;BME280;59025;42.050;-8.660;2022-08-06T01:51:35;100647.75;;;20.93;100.00
71004;BME280;59025;42.050;-8.660;2022-08-06T01:54:06;100651.38;;;20.92;100.00
71004;BME280;59025;42.050;-8.660;2022-08-06T01:56:38;100637.78;;;20.90;100.00
71004;BME280;59025;42.050;-8.660;2022-08-06T01:59:08;100637.28;;;20.88;100.00
71004;BME280;59025;42.050;-8.660;2022-08-06T02:01:38;100635.69;;;20.87;100.00
71004;BME280;59025;42.050;-8.660;2022-08-06T02:04:07;100641.44;;;20.84;100.00
71004;BME280;59025;42.050;-8.660;2022-08-06T02:06:39;100631.53;;;20.81;100.00
71004;BME280;59025;42.050;-8.660;2022-08-06T02:09:12;100634.13;;;20.81;100.00
71004;BME280;59025;42.050;-8.660;2022-08-06T02:11:43;100646.16;;;20.82;100.00
71004;BME280;59025;42.050;-8.660;2022-08-06T02:14:13;100629.94;;;20.85;100.00
71004;BME280;59025;42.050;-8.660;2022-08-06T02:16:42;100626.53;;;20.85;100.00
71004;BME280;59025;42.050;-8.660;2022-08-06T02:19:12;100621.56;;;20.83;100.00
71004;BME280;59025;42.050;-8.660;2022-08-06T02:21:42;100626.81;;;20.83;100.00
71004;BME280;59025;42.050;-8.660;2022-08-06T02:24:11;100626.53;;;20.80;100.00
71004;BME280;59025;42.050;-8.660;2022-08-06T02:26:40;100625.25;;;20.77;100.00
71004;BME280;59025;42.050;-8.660;2022-08-06T02:29:11;100624.69;;;20.75;100.00
71004;BME280;59025;42.050;-8.660;2022-08-06T02:31:43;100626.28;;;20.76;100.00
71004;BME280;59025;42.050;-8.660;2022-08-06T02:34:11;100629.41;;;20.73;100.00
71004;BME280;59025;42.050;-8.660;2022-08-06T02:36:42;100616.59;;;20.72;100.00
71004;BME280;59025;42.050;-8.660;2022-08-06T02:39:17;100626.03;;;20.73;100.00
71004;BME280;59025;42.050;-8.660;2022-08-06T02:41:52;100623.94;;;20.65;100.00
71004;BME280;59025;42.050;-8.660;2022-08-06T02:44:26;100627.34;;;20.60;100.00
71004;BME280;59025;42.050;-8.660;2022-08-06T02:47:04;100623.19;;;20.59;100.00
71004;BME280;59025;42.050;-8.660;2022-08-06T02:49:36;100630.47;;;20.57;100.00
71004;BME280;59025;42.050;-8.660;2022-08-06T02:52:10;100629.97;;;20.55;100.00
71004;BME280;59025;42.050;-8.660;2022-08-06T02:54:43;100626.31;;;20.51;100.00
71004;BME280;59025;42.050;-8.660;2022-08-06T02:57:17;100622.38;;;20.49;100.00
71004;BME280;59025;42.050;-8.660;2022-08-06T02:59:49;100628.16;;;20.46;100.00
71004;BME280;59025;42.050;-8.660;2022-08-06T03:02:22;100624.72;;;20.45;100.00
71004;BME280;59025;42.050;-8.660;2022-08-06T03:04:51;100631.00;;;20.44;100.00
71004;BME280;59025;42.050;-8.660;2022-08-06T03:07:20;100625.78;;;20.44;100.00
71004;BME280;59025;42.050;-8.660;2022-08-06T03:09:50;100622.38;;;20.44;100.00
71004;BME280;59025;42.050;-8.660;2022-08-06T03:12:20;100621.06;;;20.41;100.00
71004;BME280;59025;42.050;-8.660;2022-08-06T03:14:48;100621.59;;;20.38;100.00
71004;BME280;59025;42.050;-8.660;2022-08-06T03:17:19;100628.13;;;20.36;100.00
71004;BME280;59025;42.050;-8.660;2022-08-06T03:19:49;100624.22;;;20.33;100.00
71004;BME280;59025;42.050;-8.660;2022-08-06T03:22:18;100621.59;;;20.33;100.00
71004;BME280;59025;42.050;-8.660;2022-08-06T03:24:47;100629.94;;;20.30;100.00
71004;BME280;59025;42.050;-8.660;2022-08-06T03:27:16;100629.44;;;20.33;100.00
71004;BME280;59025;42.050;-8.660;2022-08-06T03:29:45;100628.41;;;20.39;100.00
71004;BME280;59025;42.050;-8.660;2022-08-06T03:32:13;100637.78;;;20.40;100.00
71004;BME280;59025;42.050;-8.660;2022-08-06T03:34:43;100635.44;;;20.39;100.00
71004;BME280;59025;42.050;-8.660;2022-08-06T03:37:14;100626.84;;;20.38;100.00
71004;BME280;59025;42.050;-8.660;2022-08-06T03:39:44;100625.78;;;20.34;100.00
71004;BME280;59025;42.050;-8.660;2022-08-06T03:42:14;100616.88;;;20.30;100.00
71004;BME280;59025;42.050;-8.660;2022-08-06T03:44:41;100609.06;;;20.25;100.00
71004;BME280;59025;42.050;-8.660;2022-08-06T03:47:13;100628.91;;;20.21;100.00
71004;BME280;59025;42.050;-8.660;2022-08-06T03:49:50;100629.41;;;20.18;100.00
71004;BME280;59025;42.050;-8.660;2022-08-06T03:52:24;100624.19;;;20.18;100.00
71004;BME280;59025;42.050;-8.660;2022-08-06T03:54:54;100619.78;;;20.24;100.00
71004;BME280;59025;42.050;-8.660;2022-08-06T03:57:26;100627.88;;;20.22;100.00
71004;BME280;59025;42.050;-8.660;2022-08-06T03:59:55;100636.50;;;20.23;100.00
71004;BME280;59025;42.050;-8.660;2022-08-06T04:02:33;100629.44;;;20.23;100.00
71004;BME280;59025;42.050;-8.660;2022-08-06T04:05:03;100633.34;;;20.21;100.00
71004;BME280;59025;42.050;-8.660;2022-08-06T04:07:32;100635.44;;;20.14;100.00
71004;BME280;59025;42.050;-8.660;2022-08-06T04:10:00;100634.63;;;20.13;100.00
71004;BME280;59025;42.050;-8.660;2022-08-06T04:12:28;100631.50;;;20.11;100.00
71004;BME280;59025;42.050;-8.660;2022-08-06T04:14:58;100638.03;;;20.09;100.00
71004;BME280;59025;42.050;-8.660;2022-08-06T04:17:26;100633.84;;;20.08;100.00
71004;BME280;59025;42.050;-8.660;2022-08-06T04:19:55;100639.56;;;20.05;100.00
71004;BME280;59025;42.050;-8.660;2022-08-06T04:22:24;100651.06;;;20.04;100.00
71004;BME280;59025;42.050;-8.660;2022-08-06T04:24:52;100648.19;;;20.05;100.00
71004;BME280;59025;42.050;-8.660;2022-08-06T04:27:20;100636.97;;;20.10;100.00
71004;BME280;59025;42.050;-8.660;2022-08-06T04:29:49;100641.97;;;20.11;100.00
71004;BME280;59025;42.050;-8.660;2022-08-06T04:32:18;100650.31;;;20.08;100.00
71004;BME280;59025;42.050;-8.660;2022-08-06T04:34:47;100643.22;;;20.04;100.00
71004;BME280;59025;42.050;-8.660;2022-08-06T04:37:15;100649.75;;;20.01;100.00
71004;BME280;59025;42.050;-8.660;2022-08-06T04:39:45;100657.56;;;19.96;100.00
71004;BME280;59025;42.050;-8.660;2022-08-06T04:42:14;100655.47;;;19.93;100.00
71004;BME280;59025;42.050;-8.660;2022-08-06T04:44:42;100661.72;;;19.87;100.00
71004;BME280;59025;42.050;-8.660;2022-08-06T04:47:10;100661.72;;;19.87;100.00
71004;BME280;59025;42.050;-8.660;2022-08-06T04:49:38;100663.28;;;19.83;100.00
71004;BME280;59025;42.050;-8.660;2022-08-06T04:52:07;100664.81;;;19.79;100.00
71004;BME280;59025;42.050;-8.660;2022-08-06T04:54:35;100653.59;;;19.74;100.00
71004;BME280;59025;42.050;-8.660;2022-08-06T04:57:04;100671.59;;;19.70;100.00
71004;BME280;59025;42.050;-8.660;2022-08-06T04:59:31;100656.69;;;19.71;100.00
71004;BME280;59025;42.050;-8.660;2022-08-06T05:01:58;100666.38;;;19.70;100.00
71004;BME280;59025;42.050;-8.660;2022-08-06T05:04:27;100673.66;;;19.68;100.00
71004;BME280;59025;42.050;-8.660;2022-08-06T05:07:00;100675.75;;;19.66;100.00
71004;BME280;59025;42.050;-8.660;2022-08-06T05:09:30;100683.06;;;19.64;100.00
71004;BME280;59025;42.050;-8.660;2022-08-06T05:12:01;100685.13;;;19.62;100.00
71004;BME280;59025;42.050;-8.660;2022-08-06T05:14:36;100686.97;;;19.62;100.00
71004;BME280;59025;42.050;-8.660;2022-08-06T05:17:07;100688.25;;;19.59;100.00
71004;BME280;59025;42.050;-8.660;2022-08-06T05:19:41;100691.91;;;19.58;100.00
71004;BME280;59025;42.050;-8.660;2022-08-06T05:22:12;100695.56;;;19.57;100.00
71004;BME280;59025;42.050;-8.660;2022-08-06T05:24:40;100703.66;;;19.56;100.00
71004;BME280;59025;42.050;-8.660;2022-08-06T05:27:09;100690.59;;;19.56;100.00
71004;BME280;59025;42.050;-8.660;2022-08-06T05:29:39;100707.81;;;19.57;100.00
71004;BME280;59025;42.050;-8.660;2022-08-06T05:32:07;100704.69;;;19.55;100.00
71004;BME280;59025;42.050;-8.660;2022-08-06T05:34:34;100703.66;;;19.56;100.00
71004;BME280;59025;42.050;-8.660;2022-08-06T05:37:02;100709.13;;;19.54;100.00
71004;BME280;59025;42.050;-8.660;2022-08-06T05:39:29;100711.97;;;19.53;100.00
71004;BME280;59025;42.050;-8.660;2022-08-06T05:41:59;100701.53;;;19.53;100.00
71004;BME280;59025;42.050;-8.660;2022-08-06T05:44:26;100710.16;;;19.53;100.00
71004;BME280;59025;42.050;-8.660;2022-08-06T05:46:58;100693.69;;;19.53;100.00
71004;BME280;59025;42.050;-8.660;2022-08-06T05:49:32;100702.84;;;19.55;100.00
71004;BME280;59025;42.050;-8.660;2022-08-06T05:52:06;100714.84;;;19.56;100.00
71004;BME280;59025;42.050;-8.660;2022-08-06T05:54:42;100709.66;;;19.61;100.00
71004;BME280;59025;42.050;-8.660;2022-08-06T05:57:14;100717.00;;;19.64;100.00
71004;BME280;59025;42.050;-8.660;2022-08-06T05:59:47;100715.44;;;19.68;100.00
71004;BME280;59025;42.050;-8.660;2022-08-06T06:02:18;100715.72;;;19.72;100.00
71004;BME280;59025;42.050;-8.660;2022-08-06T06:04:47;100717.06;;;19.74;100.00
71004;BME280;59025;42.050;-8.660;2022-08-06T06:07:15;100713.41;;;19.80;100.00
71004;BME280;59025;42.050;-8.660;2022-08-06T06:09:42;100719.97;;;19.83;100.00
71004;BME280;59025;42.050;-8.660;2022-08-06T06:12:12;100720.75;;;19.88;100.00
71004;BME280;59025;42.050;-8.660;2022-08-06T06:14:40;100719.94;;;19.88;100.00
71004;BME280;59025;42.050;-8.660;2022-08-06T06:17:30;100716.59;;;19.92;100.00
71004;BME280;59025;42.050;-8.660;2022-08-06T06:20:10;100718.69;;;19.95;100.00
71004;BME280;59025;42.050;-8.660;2022-08-06T06:22:46;100721.56;;;19.99;100.00
71004;BME280;59025;42.050;-8.660;2022-08-06T06:25:21;100714.78;;;20.03;100.00
71004;BME280;59025;42.050;-8.660;2022-08-06T06:27:56;100718.19;;;20.03;100.00
71004;BME280;59025;42.050;-8.660;2022-08-06T06:30:30;100712.97;;;20.03;100.00
71004;BME280;59025;42.050;-8.660;2022-08-06T06:33:08;100720.81;;;20.03;100.00
71004;BME280;59025;42.050;-8.660;2022-08-06T06:35:46;100715.63;;;20.08;100.00
71004;BME280;59025;42.050;-8.660;2022-08-06T06:38:25;100724.25;;;20.14;100.00
71004;BME280;59025;42.050;-8.660;2022-08-06T06:41:00;100721.41;;;20.15;100.00
71004;BME280;59025;42.050;-8.660;2022-08-06T06:43:35;100716.94;;;20.16;100.00
71004;BME280;59025;42.050;-8.660;2022-08-06T06:46:12;100719.56;;;20.21;100.00
71004;BME280;59025;42.050;-8.660;2022-08-06T06:48:44;100708.34;;;20.20;100.00
71004;BME280;59025;42.050;-8.660;2022-08-06T06:51:16;100718.28;;;20.33;100.00
71004;BME280;59025;42.050;-8.660;2022-08-06T06:53:49;100699.50;;;21.21;100.00
71004;BME280;59025;42.050;-8.660;2022-08-06T06:56:23;100668.25;;;22.47;100.00
71004;BME280;59025;42.050;-8.660;2022-08-06T06:58:55;100653.00;;;22.82;100.00
71004;BME280;59025;42.050;-8.660;2022-08-06T07:01:25;100655.56;;;23.16;100.00
71004;BME280;59025;42.050;-8.660;2022-08-06T07:04:00;100654.03;;;23.38;100.00
71004;BME280;59025;42.050;-8.660;2022-08-06T07:06:28;100645.13;;;23.76;100.00
71004;BME280;59025;42.050;-8.660;2022-08-06T07:08:58;100644.56;;;24.35;100.00
71004;BME280;59025;42.050;-8.660;2022-08-06T07:11:27;100643.13;;;24.74;100.00
71004;BME280;59025;42.050;-8.660;2022-08-06T07:13:58;100635.81;;;24.71;100.00
71004;BME280;59025;42.050;-8.660;2022-08-06T07:16:27;100641.44;;;25.10;100.00
71004;BME280;59025;42.050;-8.660;2022-08-06T07:18:55;100637.31;;;25.45;100.00
71004;BME280;59025;42.050;-8.660;2022-08-06T07:21:24;100637.31;;;25.58;100.00
71004;BME280;59025;42.050;-8.660;2022-08-06T07:23:53;100640.16;;;25.48;100.00
71004;BME280;59025;42.050;-8.660;2022-08-06T07:26:22;100646.31;;;25.44;100.00
71004;BME280;59025;42.050;-8.660;2022-08-06T07:28:51;100641.53;;;25.81;100.00
71004;BME280;59025;42.050;-8.660;2022-08-06T07:31:22;100638.16;;;26.38;100.00
71004;BME280;59025;42.050;-8.660;2022-08-06T07:33:52;100627.88;;;26.37;100.00
71004;BME280;59025;42.050;-8.660;2022-08-06T07:36:22;100636.44;;;25.98;100.00
71004;BME280;59025;42.050;-8.660;2022-08-06T07:38:55;100636.78;;;26.19;100.00
71004;BME280;59025;42.050;-8.660;2022-08-06T07:41:26;100623.06;;;26.91;100.00
71004;BME280;59025;42.050;-8.660;2022-08-06T07:43:58;100628.25;;;26.66;100.00
71004;BME280;59025;42.050;-8.660;2022-08-06T07:46:28;100633.38;;;26.71;100.00
71004;BME280;59025;42.050;-8.660;2022-08-06T07:49:02;100628.13;;;27.10;100.00
71004;BME280;59025;42.050;-8.660;2022-08-06T07:51:39;100633.50;;;26.96;100.00
71004;BME280;59025;42.050;-8.660;2022-08-06T07:54:09;100630.81;;;27.18;100.00
71004;BME280;59025;42.050;-8.660;2022-08-06T07:56:40;100626.44;;;27.22;100.00
71004;BME280;59025;42.050;-8.660;2022-08-06T07:59:08;100626.69;;;27.60;100.00
71004;BME280;59025;42.050;-8.660;2022-08-06T08:01:37;100638.78;;;27.35;100.00
71004;BME280;59025;42.050;-8.660;2022-08-06T08:04:06;100635.53;;;27.64;100.00
71004;BME280;59025;42.050;-8.660;2022-08-06T08:06:51;100632.47;;;28.04;100.00
71004;BME280;59025;42.050;-8.660;2022-08-06T08:09:22;100636.69;;;27.97;100.00
71004;BME280;59025;42.050;-8.660;2022-08-06T08:11:52;100630.31;;;27.81;100.00
71004;BME280;59025;42.050;-8.660;2022-08-06T08:14:21;100641.66;;;27.98;100.00
71004;BME280;59025;42.050;-8.660;2022-08-06T08:16:50;100641.34;;;28.17;100.00
71004;BME280;59025;42.050;-8.660;2022-08-06T08:19:25;100627.78;;;28.35;100.00
71004;BME280;59025;42.050;-8.660;2022-08-06T08:21:57;100632.28;;;28.52;100.00
71004;BME280;59025;42.050;-8.660;2022-08-06T08:24:28;100624.03;;;28.53;100.00
71004;BME280;59025;42.050;-8.660;2022-08-06T08:26:57;100625.34;;;28.76;100.00
71004;BME280;59025;42.050;-8.660;2022-08-06T08:29:25;100633.38;;;28.97;100.00
71004;BME280;59025;42.050;-8.660;2022-08-06T08:31:54;100630.22;;;29.61;100.00
71004;BME280;59025;42.050;-8.660;2022-08-06T08:34:22;100624.00;;;29.57;100.00
71004;BME280;59025;42.050;-8.660;2022-08-06T08:36:49;100625.50;;;29.38;100.00
71004;BME280;59025;42.050;-8.660;2022-08-06T08:39:17;100629.41;;;29.11;100.00
71004;BME280;59025;42.050;-8.660;2022-08-06T08:41:49;100625.19;;;29.19;100.00
71004;BME280;59025;42.050;-8.660;2022-08-06T08:44:23;100623.06;;;29.82;100.00
71004;BME280;59025;42.050;-8.660;2022-08-06T08:46:55;100627.88;;;29.80;100.00
71004;BME280;59025;42.050;-8.660;2022-08-06T08:49:27;100627.75;;;29.56;100.00
71004;BME280;59025;42.050;-8.660;2022-08-06T08:51:56;100620.06;;;30.04;100.00
71004;BME280;59025;42.050;-8.660;2022-08-06T08:54:27;100626.59;;;30.07;100.00
71004;BME280;59025;42.050;-8.660;2022-08-06T08:56:58;100623.56;;;30.73;100.00
71004;BME280;59025;42.050;-8.660;2022-08-06T08:59:27;100639.47;;;30.17;100.00
71004;BME280;59025;42.050;-8.660;2022-08-06T09:01:55;100626.72;;;30.55;100.00
71004;BME280;59025;42.050;-8.660;2022-08-06T09:06:58;100624.06;;;31.63;100.00
71004;BME280;59025;42.050;-8.660;2022-08-06T09:09:27;100629.75;;;31.49;100.00
71004;BME280;59025;42.050;-8.660;2022-08-06T09:11:55;100625.34;;;31.17;100.00
71004;BME280;59025;42.050;-8.660;2022-08-06T09:14:25;100631.25;;;30.54;100.00
71004;BME280;59025;42.050;-8.660;2022-08-06T09:16:52;100621.34;;;30.75;100.00
71004;BME280;59025;42.050;-8.660;2022-08-06T09:19:20;100617.25;;;30.90;100.00
71004;BME280;59025;42.050;-8.660;2022-08-06T09:21:48;100618.59;;;30.84;100.00
71004;BME280;59025;42.050;-8.660;2022-08-06T09:24:16;100613.16;;;30.80;100.00
71004;BME280;59025;42.050;-8.660;2022-08-06T09:27:02;100620.59;;;31.23;100.00
71004;BME280;59025;42.050;-8.660;2022-08-06T09:29:31;100624.91;;;31.39;100.00
71004;BME280;59025;42.050;-8.660;2022-08-06T09:32:00;100627.16;;;32.04;100.00
71004;BME280;59025;42.050;-8.660;2022-08-06T09:34:34;100636.63;;;32.29;100.00
71004;BME280;59025;42.050;-8.660;2022-08-06T09:37:02;100633.88;;;32.72;100.00
71004;BME280;59025;42.050;-8.660;2022-08-06T09:39:31;100635.88;;;32.91;100.00
71004;BME280;59025;42.050;-8.660;2022-08-06T09:42:01;100631.47;;;32.52;100.00
71004;BME280;59025;42.050;-8.660;2022-08-06T09:44:29;100635.97;;;32.63;100.00
71004;BME280;59025;42.050;-8.660;2022-08-06T09:46:58;100633.81;;;32.84;100.00
71004;BME280;59025;42.050;-8.660;2022-08-06T09:49:26;100627.28;;;32.97;100.00
71004;BME280;59025;42.050;-8.660;2022-08-06T09:52:12;100637.13;;;33.12;100.00
71004;BME280;59025;42.050;-8.660;2022-08-06T09:54:39;100640.44;;;32.90;100.00
71004;BME280;59025;42.050;-8.660;2022-08-06T09:57:07;100630.84;;;33.20;100.00
71004;BME280;59025;42.050;-8.660;2022-08-06T09:59:43;100629.38;;;33.38;97.33
71004;BME280;59025;42.050;-8.660;2022-08-06T10:02:16;100630.88;;;33.74;96.24
71004;BME280;59025;42.050;-8.660;2022-08-06T10:04:45;100637.28;;;34.71;91.55
71004;BME280;59025;42.050;-8.660;2022-08-06T10:07:12;100632.81;;;35.27;88.20
71004;BME280;59025;42.050;-8.660;2022-08-06T10:09:51;100638.53;;;35.55;88.21
71004;BME280;59025;42.050;-8.660;2022-08-06T10:12:21;100638.16;;;35.86;86.74
71004;BME280;59025;42.050;-8.660;2022-08-06T10:14:49;100632.19;;;36.36;84.72
71004;BME280;59025;42.050;-8.660;2022-08-06T10:17:19;100635.34;;;36.92;81.13
71004;BME280;59025;42.050;-8.660;2022-08-06T10:20:04;100639.09;;;36.41;82.27
71004;BME280;59025;42.050;-8.660;2022-08-06T10:22:32;100636.16;;;36.56;82.89
71004;BME280;59025;42.050;-8.660;2022-08-06T10:25:01;100633.47;;;36.56;82.87
71004;BME280;59025;42.050;-8.660;2022-08-06T10:27:33;100632.09;;;36.66;82.16
71004;BME280;59025;42.050;-8.660;2022-08-06T10:30:03;100633.78;;;36.91;78.26
71004;BME280;59025;42.050;-8.660;2022-08-06T10:32:37;100634.63;;;36.55;81.48
71004;BME280;59025;42.050;-8.660;2022-08-06T10:35:08;100629.13;;;36.81;80.58
71004;BME280;59025;42.050;-8.660;2022-08-06T10:37:38;100631.91;;;36.48;81.26
71004;BME280;59025;42.050;-8.660;2022-08-06T10:40:11;100630.31;;;36.40;81.52
71004;BME280;59025;42.050;-8.660;2022-08-06T10:42:39;100631.91;;;36.48;80.40
71004;BME280;59025;42.050;-8.660;2022-08-06T10:45:09;100633.31;;;36.79;77.33
71004;BME280;59025;42.050;-8.660;2022-08-06T10:47:39;100634.84;;;36.76;76.24
71004;BME280;59025;42.050;-8.660;2022-08-06T10:50:07;100630.63;;;36.79;78.31
71004;BME280;59025;42.050;-8.660;2022-08-06T10:52:36;100628.97;;;37.11;75.47
71004;BME280;59025;42.050;-8.660;2022-08-06T10:55:04;100625.34;;;37.54;75.75
71004;BME280;59025;42.050;-8.660;2022-08-06T10:57:32;100631.28;;;38.01;73.28
71004;BME280;59025;42.050;-8.660;2022-08-06T11:00:00;100633.63;;;38.31;70.81
71004;BME280;59025;42.050;-8.660;2022-08-06T11:02:33;100629.75;;;38.00;73.08
71004;BME280;59025;42.050;-8.660;2022-08-06T11:05:11;100628.41;;;37.52;71.79
71004;BME280;59025;42.050;-8.660;2022-08-06T11:11:12;100612.59;;;37.33;75.84
71004;BME280;59025;42.050;-8.660;2022-08-06T11:13:53;100606.59;;;37.61;72.71
71004;BME280;59025;42.050;-8.660;2022-08-06T11:16:26;100613.63;;;38.07;73.96
71004;BME280;59025;42.050;-8.660;2022-08-06T11:18:59;100606.72;;;38.13;73.03
71004;BME280;59025;42.050;-8.660;2022-08-06T11:21:39;100609.81;;;38.15;73.54
71004;BME280;59025;42.050;-8.660;2022-08-06T11:24:07;100607.44;;;37.93;73.47
71004;BME280;59025;42.050;-8.660;2022-08-06T11:26:36;100602.53;;;38.23;72.65
71004;BME280;59025;42.050;-8.660;2022-08-06T11:29:05;100596.75;;;38.17;74.08
71004;BME280;59025;42.050;-8.660;2022-08-06T11:31:38;100601.38;;;38.24;73.95
71004;BME280;59025;42.050;-8.660;2022-08-06T11:34:08;100598.28;;;38.18;72.53
71004;BME280;59025;42.050;-8.660;2022-08-06T11:36:49;100592.56;;;38.44;74.13
71004;BME280;59025;42.050;-8.660;2022-08-06T11:39:17;100597.91;;;38.76;72.11
71004;BME280;59025;42.050;-8.660;2022-08-06T11:41:55;100585.91;;;39.19;73.15
71004;BME280;59025;42.050;-8.660;2022-08-06T11:44:24;100596.34;;;39.03;68.49
71004;BME280;59025;42.050;-8.660;2022-08-06T11:47:13;100592.13;;;39.02;71.52
71004;BME280;59025;42.050;-8.660;2022-08-06T11:49:43;100585.19;;;39.04;66.79
71004;BME280;59025;42.050;-8.660;2022-08-06T11:52:39;100591.75;;;38.75;69.70
71004;BME280;59025;42.050;-8.660;2022-08-06T11:55:09;100584.47;;;38.62;72.25
71004;BME280;59025;42.050;-8.660;2022-08-06T11:57:37;100576.78;;;38.60;74.65
71004;BME280;59025;42.050;-8.660;2022-08-06T12:00:08;100568.00;;;38.42;76.58
71004;BME280;59025;42.050;-8.660;2022-08-06T12:02:50;100568.34;;;38.51;74.21
71004;BME280;59025;42.050;-8.660;2022-08-06T12:05:36;100564.13;;;38.12;76.05
71004;BME280;59025;42.050;-8.660;2022-08-06T12:08:19;100553.38;;;38.15;83.10
71004;BME280;59025;42.050;-8.660;2022-08-06T12:11:21;100536.78;;;37.64;86.28
71004;BME280;59025;42.050;-8.660;2022-08-06T12:13:49;100527.53;;;37.55;91.46
71004;BME280;59025;42.050;-8.660;2022-08-06T12:16:31;100527.00;;;37.11;92.81
71004;BME280;59025;42.050;-8.660;2022-08-06T12:18:59;100518.69;;;36.72;97.54
71004;BME280;59025;42.050;-8.660;2022-08-06T12:21:28;100526.47;;;36.91;98.36
71004;BME280;59025;42.050;-8.660;2022-08-06T12:23:57;100531.44;;;36.32;100.00
71004;BME280;59025;42.050;-8.660;2022-08-06T12:26:30;100521.78;;;35.80;100.00
71004;BME280;59025;42.050;-8.660;2022-08-06T12:29:08;100526.81;;;35.52;100.00
71004;BME280;59025;42.050;-8.660;2022-08-06T12:31:37;100531.00;;;35.20;100.00
71004;BME280;59025;42.050;-8.660;2022-08-06T12:34:05;100529.75;;;34.85;100.00
71004;BME280;59025;42.050;-8.660;2022-08-06T12:36:35;100527.88;;;34.85;100.00
71004;BME280;59025;42.050;-8.660;2022-08-06T12:39:06;100535.16;;;34.62;100.00
71004;BME280;59025;42.050;-8.660;2022-08-06T12:41:39;100532.22;;;34.71;100.00
71004;BME280;59025;42.050;-8.660;2022-08-06T12:44:11;100531.03;;;34.68;100.00
71004;BME280;59025;42.050;-8.660;2022-08-06T12:46:39;100539.34;;;34.63;100.00
71004;BME280;59025;42.050;-8.660;2022-08-06T12:49:07;100536.63;;;34.60;100.00
71004;BME280;59025;42.050;-8.660;2022-08-06T12:51:35;100538.56;;;34.37;100.00
71004;BME280;59025;42.050;-8.660;2022-08-06T12:54:09;100536.72;;;34.18;100.00
71004;BME280;59025;42.050;-8.660;2022-08-06T12:56:39;100532.19;;;34.00;100.00
71004;BME280;59025;42.050;-8.660;2022-08-06T12:59:10;100538.63;;;33.76;100.00